createdAt,value
2018-07-17T00:02:18.663Z,2.90
2018-07-17T00:04:46.195Z,2.63
2018-07-17T00:07:13.626Z,2.90
2018-07-17T00:09:41.244Z,3.30
2018-07-17T00:12:08.674Z,3.00
2018-07-17T00:14:36.234Z,3.47
2018-07-17T00:17:03.726Z,3.47
2018-07-17T00:19:31.185Z,2.93
2018-07-17T00:21:58.677Z,2.90
2018-07-17T00:24:26.155Z,2.97
2018-07-17T00:26:53.779Z,3.50
2018-07-17T00:29:21.323Z,3.20
2018-07-17T00:31:48.719Z,3.07
2018-07-17T00:34:16.222Z,2.93
2018-07-17T00:36:43.779Z,4.17
2018-07-17T00:39:11.200Z,3.50
2018-07-17T00:41:38.641Z,3.40
2018-07-17T00:44:06.077Z,3.60
2018-07-17T00:46:33.492Z,3.70
2018-07-17T00:49:00.878Z,4.50
2018-07-17T00:51:28.364Z,4.23
2018-07-17T00:53:55.833Z,4.80
2018-07-17T00:56:23.343Z,3.90
2018-07-17T00:58:50.823Z,4.00
2018-07-17T01:01:24.015Z,4.10
2018-07-17T01:03:57.078Z,4.67
2018-07-17T01:06:30.311Z,4.67
2018-07-17T01:09:03.509Z,5.00
2018-07-17T01:11:36.729Z,3.80
2018-07-17T01:15:10.202Z,4.00
2018-07-17T01:17:37.701Z,3.80
2018-07-17T01:20:05.628Z,3.57
2018-07-17T01:22:33.005Z,4.13
2018-07-17T01:25:00.570Z,3.53
2018-07-17T01:27:28.267Z,4.80
2018-07-17T01:29:55.805Z,4.50
2018-07-17T01:32:23.226Z,4.57
2018-07-17T01:34:50.742Z,4.33
2018-07-17T01:37:18.160Z,4.30
2018-07-17T01:39:45.583Z,5.23
2018-07-17T01:42:13.024Z,5.20
2018-07-17T01:44:40.467Z,4.73
2018-07-17T01:47:08.091Z,4.63
2018-07-17T01:49:35.604Z,4.67
2018-07-17T01:52:03.403Z,4.23
2018-07-17T01:54:30.908Z,3.73
2018-07-17T01:56:58.297Z,4.50
2018-07-17T01:59:25.749Z,4.33
2018-07-17T02:01:53.216Z,4.37
2018-07-17T02:04:21.750Z,5.10
2018-07-17T02:06:49.159Z,4.63
2018-07-17T02:09:16.658Z,4.27
2018-07-17T02:11:44.275Z,4.87
2018-07-17T02:14:11.747Z,4.37
2018-07-17T02:16:39.242Z,4.87
2018-07-17T02:19:06.761Z,5.50
2018-07-17T02:21:34.323Z,5.43
2018-07-17T02:24:01.826Z,5.00
2018-07-17T02:26:29.231Z,4.47
2018-07-17T02:28:56.697Z,4.33
2018-07-17T02:31:24.354Z,4.40
2018-07-17T02:33:51.910Z,4.63
2018-07-17T02:36:19.494Z,4.20
2018-07-17T02:38:47.083Z,4.10
2018-07-17T02:41:14.593Z,4.60
2018-07-17T02:43:42.101Z,4.67
2018-07-17T02:46:09.602Z,4.37
2018-07-17T02:48:37.085Z,4.70
2018-07-17T02:51:04.546Z,4.90
2018-07-17T02:53:32.042Z,4.93
2018-07-17T02:55:59.566Z,4.20
2018-07-17T02:58:27.071Z,4.60
2018-07-17T03:00:54.684Z,4.67
2018-07-17T03:03:22.119Z,5.27
2018-07-17T03:05:49.527Z,4.47
2018-07-17T03:08:17.046Z,5.10
2018-07-17T03:10:44.556Z,4.40
2018-07-17T03:13:12.026Z,5.40
2018-07-17T03:15:39.414Z,5.23
2018-07-17T03:18:07.095Z,6.20
2018-07-17T03:20:34.527Z,5.80
2018-07-17T03:23:02.045Z,6.40
2018-07-17T03:25:29.591Z,5.60
2018-07-17T03:27:57.314Z,5.93
2018-07-17T03:30:25.104Z,6.50
2018-07-17T03:32:52.487Z,5.87
2018-07-17T03:35:20.024Z,6.47
2018-07-17T03:37:47.554Z,5.97
2018-07-17T03:40:15.146Z,6.63
2018-07-17T03:42:42.558Z,6.40
2018-07-17T03:45:09.971Z,6.53
2018-07-17T03:47:37.497Z,5.87
2018-07-17T03:50:05.113Z,5.40
2018-07-17T03:52:32.678Z,6.07
2018-07-17T03:55:00.188Z,6.30
2018-07-17T03:57:27.670Z,7.23
2018-07-17T03:59:55.097Z,6.17
2018-07-17T04:02:22.679Z,6.23
2018-07-17T04:04:50.150Z,5.40
2018-07-17T04:07:17.579Z,5.83
2018-07-17T04:09:45.010Z,6.20
2018-07-17T04:12:12.479Z,10.77
2018-07-17T04:14:40.442Z,44.60
2018-07-17T04:17:07.887Z,26.67
2018-07-17T04:19:35.405Z,17.30
2018-07-17T04:22:02.923Z,12.43
2018-07-17T04:24:31.610Z,9.87
2018-07-17T04:26:59.348Z,6.67
2018-07-17T04:29:26.799Z,7.33
2018-07-17T04:31:54.303Z,6.30
2018-07-17T04:34:21.806Z,6.30
2018-07-17T04:36:49.237Z,6.10
2018-07-17T04:39:16.698Z,6.10
2018-07-17T04:41:44.148Z,6.90
2018-07-17T04:44:11.682Z,7.80
2018-07-17T04:46:39.065Z,8.57
2018-07-17T04:49:06.788Z,23.63
2018-07-17T04:51:34.269Z,12.63
2018-07-17T04:54:01.806Z,9.00
2018-07-17T04:56:29.413Z,7.60
2018-07-17T04:58:56.929Z,6.07
2018-07-17T05:01:24.847Z,6.70
2018-07-17T05:03:52.274Z,7.00
2018-07-17T05:06:19.811Z,5.70
2018-07-17T05:08:47.398Z,5.23
2018-07-17T05:11:14.980Z,6.50
2018-07-17T05:13:42.452Z,7.37
2018-07-17T05:16:10.229Z,6.17
2018-07-17T05:18:37.670Z,6.67
2018-07-17T05:21:05.435Z,7.97
2018-07-17T05:23:32.955Z,26.23
2018-07-17T05:26:00.490Z,15.03
2018-07-17T05:28:27.955Z,9.40
2018-07-17T05:30:55.512Z,8.87
2018-07-17T05:33:23.141Z,6.40
2018-07-17T05:35:50.606Z,5.70
2018-07-17T05:38:18.130Z,6.13
2018-07-17T05:40:45.958Z,6.57
2018-07-17T05:43:13.386Z,5.27
2018-07-17T05:45:40.920Z,4.80
2018-07-17T05:48:08.549Z,5.17
2018-07-17T05:50:36.023Z,6.03
2018-07-17T05:53:03.490Z,5.47
2018-07-17T05:55:31.170Z,4.83
2018-07-17T05:57:58.674Z,5.30
2018-07-17T06:00:26.189Z,4.90
2018-07-17T06:02:53.650Z,5.33
2018-07-17T06:05:21.258Z,5.23
2018-07-17T06:07:48.938Z,5.33
2018-07-17T06:10:16.431Z,6.03
2018-07-17T06:12:43.979Z,4.83
2018-07-17T06:15:11.420Z,5.27
2018-07-17T06:17:38.895Z,4.83
2018-07-17T06:20:07.165Z,5.63
2018-07-17T06:22:34.673Z,5.30
2018-07-17T06:25:02.161Z,6.17
2018-07-17T06:27:29.632Z,6.43
2018-07-17T06:29:57.147Z,5.93
2018-07-17T06:32:24.627Z,6.53
2018-07-17T06:34:52.125Z,5.20
2018-07-17T06:37:19.694Z,5.73
2018-07-17T06:39:47.186Z,5.53
2018-07-17T06:42:14.663Z,4.53
2018-07-17T06:44:42.166Z,4.90
2018-07-17T06:47:09.635Z,5.07
2018-07-17T06:49:37.071Z,5.73
2018-07-17T06:52:05.224Z,5.17
2018-07-17T06:54:32.726Z,5.87
2018-07-17T06:57:00.315Z,4.97
2018-07-17T06:59:27.833Z,5.60
2018-07-17T07:01:55.353Z,5.40
2018-07-17T07:04:22.770Z,4.43
2018-07-17T07:06:50.243Z,5.50
2018-07-17T07:09:17.751Z,5.07
2018-07-17T07:11:45.295Z,5.43
2018-07-17T07:14:12.688Z,5.13
2018-07-17T07:16:40.135Z,5.30
2018-07-17T07:19:07.602Z,5.70
2018-07-17T07:21:34.982Z,5.43
2018-07-17T07:24:02.601Z,5.97
2018-07-17T07:26:30.090Z,8.13
2018-07-17T07:28:57.569Z,6.80
2018-07-17T07:31:25.003Z,6.00
2018-07-17T07:33:52.512Z,6.37
2018-07-17T07:36:20.000Z,6.53
2018-07-17T07:38:47.590Z,5.20
2018-07-17T07:41:14.994Z,7.33
2018-07-17T07:43:42.696Z,6.50
2018-07-17T07:46:10.319Z,8.80
2018-07-17T07:48:37.698Z,5.80
2018-07-17T07:51:05.240Z,5.70
2018-07-17T07:53:32.670Z,8.60
2018-07-17T07:56:00.330Z,6.80
2018-07-17T07:58:27.741Z,6.10
2018-07-17T08:00:55.204Z,6.80
2018-07-17T08:03:22.649Z,6.50
2018-07-17T08:05:50.188Z,5.67
2018-07-17T08:08:17.603Z,5.63
2018-07-17T08:10:45.027Z,5.43
2018-07-17T08:13:12.425Z,7.27
2018-07-17T08:15:40.000Z,5.60
2018-07-17T08:18:07.429Z,4.80
2018-07-17T08:20:34.873Z,4.20
2018-07-17T08:23:02.834Z,4.20
2018-07-17T08:25:30.351Z,5.13
2018-07-17T08:27:57.826Z,3.97
2018-07-17T08:30:25.351Z,4.97
2018-07-17T08:32:53.042Z,5.10
2018-07-17T08:35:20.571Z,4.93
2018-07-17T08:37:48.057Z,4.70
2018-07-17T08:40:15.474Z,4.17
2018-07-17T08:42:43.240Z,4.10
2018-07-17T08:45:10.746Z,3.43
2018-07-17T08:47:38.257Z,3.93
2018-07-17T08:50:05.944Z,4.03
2018-07-17T08:52:33.395Z,3.90
2018-07-17T08:55:00.822Z,5.57
2018-07-17T08:57:28.295Z,5.50
2018-07-17T08:59:55.821Z,4.47
2018-07-17T09:02:23.275Z,4.23
2018-07-17T09:04:50.799Z,4.50
2018-07-17T09:07:18.285Z,3.50
2018-07-17T09:09:45.802Z,4.87
2018-07-17T09:12:13.278Z,3.57
2018-07-17T09:14:40.680Z,3.47
2018-07-17T09:17:08.193Z,4.53
2018-07-17T09:19:35.639Z,3.20
2018-07-17T09:22:03.287Z,3.23
2018-07-17T09:24:30.783Z,2.90
2018-07-17T09:26:58.198Z,3.00
2018-07-17T09:29:25.657Z,3.20
2018-07-17T09:31:53.173Z,3.40
2018-07-17T09:34:20.565Z,3.10
2018-07-17T09:36:48.018Z,3.10
2018-07-17T09:39:15.431Z,3.57
2018-07-17T09:41:42.905Z,3.40
2018-07-17T09:44:10.684Z,3.60
2018-07-17T09:46:38.105Z,3.30
2018-07-17T09:49:05.605Z,2.87
2018-07-17T09:51:33.162Z,2.57
2018-07-17T09:54:00.623Z,3.00
2018-07-17T09:56:28.087Z,2.80
2018-07-17T09:58:55.554Z,2.50
2018-07-17T10:01:28.604Z,2.50
2018-07-17T10:03:56.077Z,2.57
2018-07-17T10:06:23.595Z,2.97
2018-07-17T10:08:50.994Z,2.50
2018-07-17T10:11:18.579Z,2.67
2018-07-17T10:13:46.104Z,2.27
2018-07-17T10:16:13.633Z,2.50
2018-07-17T10:18:41.178Z,2.23
2018-07-17T10:21:08.647Z,2.10
2018-07-17T10:23:36.098Z,2.30
2018-07-17T10:26:04.098Z,2.40
2018-07-17T10:28:31.671Z,1.93
2018-07-17T10:30:59.176Z,1.87
2018-07-17T10:33:26.579Z,1.70
2018-07-17T10:35:54.150Z,2.13
2018-07-17T10:38:21.589Z,21.30
2018-07-17T10:40:49.206Z,19.20
2018-07-17T10:43:16.812Z,18.20
2018-07-17T10:45:44.226Z,2.97
2018-07-17T10:48:11.679Z,3.90
2018-07-17T10:50:39.214Z,3.30
2018-07-17T10:53:06.690Z,3.47
2018-07-17T10:55:34.239Z,2.80
2018-07-17T10:58:02.019Z,2.00
2018-07-17T11:00:29.497Z,1.80
2018-07-17T11:02:56.915Z,1.97
2018-07-17T11:05:24.340Z,1.83
2018-07-17T11:07:51.835Z,1.87
2018-07-17T11:10:19.357Z,1.53
2018-07-17T11:12:46.749Z,1.50
2018-07-17T11:15:14.443Z,1.60
2018-07-17T11:17:41.951Z,4.60
2018-07-17T11:20:09.393Z,10.60
2018-07-17T11:22:36.811Z,5.37
2018-07-17T11:25:04.394Z,2.30
2018-07-17T11:27:31.785Z,2.10
2018-07-17T11:29:59.405Z,11.80
2018-07-17T11:32:26.792Z,9.40
2018-07-17T11:34:54.295Z,2.87
2018-07-17T11:37:21.795Z,2.73
2018-07-17T11:39:49.322Z,2.33
2018-07-17T11:42:16.872Z,2.60
2018-07-17T11:44:44.308Z,2.57
2018-07-17T11:47:11.835Z,2.43
2018-07-17T11:49:39.271Z,1.97
2018-07-17T11:52:07.135Z,2.10
2018-07-17T11:54:34.670Z,2.40
2018-07-17T11:57:02.370Z,2.00
2018-07-17T11:59:30.443Z,1.83
2018-07-17T12:01:57.815Z,2.03
2018-07-17T12:04:25.251Z,1.83
2018-07-17T12:06:53.050Z,1.80
2018-07-17T12:09:20.769Z,1.93
2018-07-17T12:11:48.378Z,2.00
2018-07-17T12:14:15.867Z,8.00
2018-07-17T12:16:43.373Z,22.73
2018-07-17T12:19:10.789Z,17.80
2018-07-17T12:21:38.289Z,5.70
2018-07-17T12:24:05.877Z,16.27
2018-07-17T12:26:33.338Z,17.73
2018-07-17T12:29:00.822Z,5.43
2018-07-17T12:31:28.329Z,3.63
2018-07-17T12:33:55.799Z,2.30
2018-07-17T12:36:23.451Z,2.00
2018-07-17T12:38:50.960Z,2.07
2018-07-17T12:41:18.655Z,1.90
2018-07-17T12:43:46.272Z,1.60
2018-07-17T12:46:13.685Z,2.37
2018-07-17T12:48:41.192Z,2.40
2018-07-17T12:51:08.666Z,2.27
2018-07-17T12:53:36.122Z,2.03
2018-07-17T12:56:03.753Z,2.20
2018-07-17T12:58:31.286Z,1.90
2018-07-17T13:00:58.686Z,2.30
2018-07-17T13:03:26.210Z,2.57
2018-07-17T13:05:53.863Z,2.33
2018-07-17T13:08:21.400Z,2.10
2018-07-17T13:10:48.851Z,2.77
2018-07-17T13:13:16.245Z,2.10
2018-07-17T13:15:43.767Z,1.97
2018-07-17T13:18:11.255Z,2.00
2018-07-17T13:20:38.825Z,2.00
2018-07-17T13:23:06.322Z,2.20
2018-07-17T13:25:33.761Z,1.97
2018-07-17T13:28:01.224Z,6.80
2018-07-17T13:30:28.907Z,10.90
2018-07-17T13:32:56.365Z,7.40
2018-07-17T13:35:23.861Z,4.20
2018-07-17T13:37:51.326Z,2.00
2018-07-17T13:40:18.809Z,1.90
2018-07-17T13:42:46.274Z,1.70
2018-07-17T13:45:13.690Z,1.67
2018-07-17T13:47:41.222Z,2.07
2018-07-17T13:50:08.714Z,1.60
2018-07-17T13:52:36.149Z,1.83
2018-07-17T13:55:03.721Z,1.50
2018-07-17T13:57:31.178Z,1.70
2018-07-17T13:59:59.100Z,1.40
2018-07-17T14:02:26.543Z,1.57
2018-07-17T14:04:54.417Z,1.50
2018-07-17T14:07:21.991Z,1.40
2018-07-17T14:09:49.582Z,1.60
2018-07-17T14:12:17.255Z,1.53
2018-07-17T14:14:44.739Z,2.03
2018-07-17T14:17:12.562Z,2.97
2018-07-17T14:19:40.413Z,2.50
2018-07-17T14:22:07.964Z,2.20
2018-07-17T14:24:35.718Z,2.10
2018-07-17T14:27:03.418Z,2.10
2018-07-17T14:29:30.970Z,1.90
2018-07-17T14:31:58.754Z,2.10
2018-07-17T14:34:26.626Z,2.00
2018-07-17T14:36:54.546Z,2.17
2018-07-17T14:39:21.987Z,2.10
2018-07-17T14:41:49.493Z,2.40
2018-07-17T14:44:16.985Z,2.70
2018-07-17T14:46:44.702Z,2.43
2018-07-17T14:49:12.319Z,2.03
2018-07-17T14:51:40.052Z,2.33
2018-07-17T14:54:07.654Z,2.90
2018-07-17T14:56:35.307Z,2.93
2018-07-17T14:59:03.142Z,2.67
2018-07-17T15:01:30.672Z,2.67
2018-07-17T15:03:58.507Z,2.53
2018-07-17T15:06:26.039Z,2.30
2018-07-17T15:08:53.835Z,2.57
2018-07-17T15:11:21.496Z,2.70
2018-07-17T15:13:48.907Z,2.77
2018-07-17T15:16:16.690Z,3.43
2018-07-17T15:18:44.132Z,3.00
2018-07-17T15:21:11.631Z,3.37
2018-07-17T15:23:39.576Z,3.03
2018-07-17T15:26:07.037Z,2.90
2018-07-17T15:28:34.980Z,2.90
2018-07-17T15:31:02.574Z,2.80
2018-07-17T15:33:30.382Z,2.83
2018-07-17T15:35:57.931Z,2.60
2018-07-17T15:38:25.513Z,3.20
2018-07-17T15:40:53.148Z,3.20
2018-07-17T15:43:20.761Z,3.10
2018-07-17T15:45:48.591Z,2.80
2018-07-17T15:48:16.024Z,2.63
2018-07-17T15:50:43.591Z,2.83
2018-07-17T15:53:11.299Z,2.40
2018-07-17T15:55:39.058Z,2.70
2018-07-17T15:58:06.595Z,2.83
2018-07-17T16:00:34.361Z,2.77
2018-07-17T16:03:01.908Z,2.70
2018-07-17T16:05:30.297Z,2.53
2018-07-17T16:07:58.034Z,2.87
2018-07-17T16:10:25.419Z,3.13
2018-07-17T16:12:52.990Z,2.67
2018-07-17T16:15:20.739Z,3.30
2018-07-17T16:17:48.242Z,18.77
2018-07-17T16:20:15.833Z,8.10
2018-07-17T16:22:43.375Z,6.17
2018-07-17T16:25:10.923Z,4.40
2018-07-17T16:27:38.649Z,3.53
2018-07-17T16:30:07.149Z,2.70
2018-07-17T16:32:34.854Z,3.30
2018-07-17T16:35:02.474Z,2.60
2018-07-17T16:37:30.188Z,2.87
2018-07-17T16:39:57.974Z,3.07
2018-07-17T16:42:27.663Z,2.87
2018-07-17T16:44:55.323Z,2.50
2018-07-17T16:47:23.013Z,2.30
2018-07-17T16:49:50.664Z,2.20
2018-07-17T16:52:18.145Z,2.53
2018-07-17T16:54:46.025Z,2.27
2018-07-17T16:57:13.510Z,2.40
2018-07-17T16:59:40.981Z,2.20
2018-07-17T17:02:09.399Z,2.03
2018-07-17T17:04:36.765Z,2.00
2018-07-17T17:07:04.350Z,2.30
2018-07-17T17:09:31.918Z,2.33
2018-07-17T17:11:59.330Z,2.57
2018-07-17T17:14:26.756Z,1.87
2018-07-17T17:16:54.302Z,2.60
2018-07-17T17:19:21.754Z,1.80
2018-07-17T17:21:49.225Z,1.73
2018-07-17T17:24:16.812Z,1.70
2018-07-17T17:26:44.183Z,1.80
2018-07-17T17:29:11.671Z,1.70
2018-07-17T17:31:39.167Z,2.43
2018-07-17T17:34:06.690Z,2.13
2018-07-17T17:36:34.262Z,2.00
2018-07-17T17:39:01.592Z,1.90
2018-07-17T17:41:30.911Z,2.13
2018-07-17T17:43:58.385Z,1.97
2018-07-17T17:46:25.882Z,8.63
2018-07-17T17:48:53.338Z,12.17
2018-07-17T17:51:20.801Z,7.13
2018-07-17T17:53:48.356Z,6.90
2018-07-17T17:56:15.785Z,8.90
2018-07-17T17:58:43.315Z,3.90
2018-07-17T18:01:10.889Z,12.67
2018-07-17T18:03:38.365Z,9.23
2018-07-17T18:06:06.106Z,3.50
2018-07-17T18:08:33.589Z,3.37
2018-07-17T18:11:01.010Z,3.80
2018-07-17T18:13:28.601Z,3.20
2018-07-17T18:15:56.169Z,2.80
2018-07-17T18:18:24.066Z,3.73
2018-07-17T18:20:51.662Z,3.20
2018-07-17T18:23:19.075Z,2.77
2018-07-17T18:25:46.517Z,3.00
2018-07-17T18:28:14.001Z,3.47
2018-07-17T18:30:41.530Z,2.33
2018-07-17T18:33:08.963Z,2.73
2018-07-17T18:35:36.481Z,2.53
2018-07-17T18:38:04.406Z,2.40
2018-07-17T18:40:31.915Z,2.60
2018-07-17T18:42:59.415Z,3.03
2018-07-17T18:45:26.885Z,2.00
2018-07-17T18:47:54.397Z,6.80
2018-07-17T18:50:21.842Z,17.93
2018-07-17T18:52:49.531Z,14.40
2018-07-17T18:55:17.120Z,2.67
2018-07-17T18:57:44.607Z,2.27
2018-07-17T19:00:12.099Z,2.57
2018-07-17T19:02:39.790Z,2.40
2018-07-17T19:05:07.377Z,2.23
2018-07-17T19:07:34.798Z,3.03
2018-07-17T19:10:02.546Z,1.87
2018-07-17T19:12:30.325Z,2.43
2018-07-17T19:14:57.907Z,2.33
2018-07-17T19:17:25.390Z,2.60
2018-07-17T19:19:53.378Z,2.83
2018-07-17T19:22:20.945Z,2.70
2018-07-17T19:24:48.415Z,2.23
2018-07-17T19:27:15.992Z,2.83
2018-07-17T19:29:43.814Z,3.13
2018-07-17T19:32:11.457Z,3.10
2018-07-17T19:34:38.953Z,2.83
2018-07-17T19:37:06.706Z,3.47
2018-07-17T19:39:35.310Z,2.57
2018-07-17T19:42:03.031Z,20.43
2018-07-17T19:44:30.845Z,10.67
2018-07-17T19:46:58.377Z,7.90
2018-07-17T19:49:25.918Z,1.90
2018-07-17T19:51:53.713Z,2.30
2018-07-17T19:54:21.291Z,2.40
2018-07-17T19:56:48.775Z,2.00
2018-07-17T19:59:16.306Z,2.10
2018-07-17T20:01:43.758Z,2.10
2018-07-17T20:04:11.483Z,1.90
2018-07-17T20:06:39.147Z,1.60
2018-07-17T20:09:07.027Z,1.93
2018-07-17T20:11:34.530Z,1.40
2018-07-17T20:14:02.152Z,2.30
2018-07-17T20:16:29.650Z,1.87
2018-07-17T20:18:57.115Z,1.90
2018-07-17T20:21:24.635Z,1.90
2018-07-17T20:23:52.148Z,1.80
2018-07-17T20:26:19.610Z,2.20
2018-07-17T20:28:47.058Z,1.97
2018-07-17T20:31:14.671Z,2.03
2018-07-17T20:33:42.144Z,1.90
2018-07-17T20:36:09.604Z,1.97
2018-07-17T20:38:37.018Z,1.80
2018-07-17T20:41:04.473Z,2.30
2018-07-17T20:43:31.944Z,1.80
2018-07-17T20:45:59.413Z,2.10
2018-07-17T20:48:27.087Z,2.20
2018-07-17T20:50:54.662Z,2.10
2018-07-17T20:53:22.159Z,2.57
2018-07-17T20:55:49.638Z,2.37
2018-07-17T20:58:17.208Z,2.20
2018-07-17T21:00:44.675Z,2.27
2018-07-17T21:03:12.667Z,2.40
2018-07-17T21:05:40.070Z,2.80
2018-07-17T21:08:07.501Z,2.23
2018-07-17T21:10:34.991Z,2.37
2018-07-17T21:13:02.569Z,3.67
2018-07-17T21:15:30.016Z,1.80
2018-07-17T21:17:57.698Z,2.87
2018-07-17T21:20:25.213Z,2.60
2018-07-17T21:22:52.715Z,2.40
2018-07-17T21:25:20.285Z,2.43
2018-07-17T21:27:47.693Z,2.90
2018-07-17T21:30:15.339Z,2.20
2018-07-17T21:32:42.800Z,2.20
2018-07-17T21:35:10.350Z,2.73
2018-07-17T21:37:37.768Z,2.47
2018-07-17T21:40:05.388Z,3.20
2018-07-17T21:42:32.867Z,3.60
2018-07-17T21:45:00.537Z,3.50
2018-07-17T21:47:27.965Z,3.57
2018-07-17T21:49:55.554Z,2.63
2018-07-17T21:52:23.058Z,3.00
2018-07-17T21:54:50.511Z,3.07
2018-07-17T21:57:17.992Z,2.90
2018-07-17T21:59:45.405Z,2.70
2018-07-17T22:02:13.153Z,2.40
2018-07-17T22:04:40.669Z,2.93
2018-07-17T22:07:08.173Z,2.70
2018-07-17T22:09:35.615Z,2.70
2018-07-17T22:12:03.590Z,2.80
2018-07-17T22:14:31.167Z,2.57
2018-07-17T22:16:58.627Z,2.67
2018-07-17T22:19:26.129Z,2.37
2018-07-17T22:21:53.625Z,2.47
2018-07-17T22:24:21.028Z,1.97
2018-07-17T22:26:48.493Z,3.07
2018-07-17T22:29:15.990Z,2.40
2018-07-17T22:31:43.394Z,2.50
2018-07-17T22:34:10.894Z,2.87
2018-07-17T22:36:38.431Z,3.13
2018-07-17T22:39:07.090Z,2.57
2018-07-17T22:41:34.524Z,2.33
2018-07-17T22:44:02.089Z,2.50
2018-07-17T22:46:29.636Z,2.90
2018-07-17T22:48:57.120Z,2.93
2018-07-17T22:51:24.683Z,2.50
2018-07-17T22:53:52.094Z,3.20
2018-07-17T22:56:19.505Z,2.30
2018-07-17T22:58:47.007Z,2.77
2018-07-17T23:01:14.556Z,2.77
2018-07-17T23:03:42.114Z,2.47
2018-07-17T23:06:09.785Z,2.60
2018-07-17T23:08:37.269Z,2.50
2018-07-17T23:11:04.797Z,3.10
2018-07-17T23:13:32.226Z,2.90
2018-07-17T23:15:59.670Z,2.37
2018-07-17T23:18:27.212Z,3.13
2018-07-17T23:20:54.712Z,2.60
2018-07-17T23:23:22.221Z,3.03
2018-07-17T23:25:49.710Z,3.03
2018-07-17T23:28:17.125Z,3.10
2018-07-17T23:30:44.632Z,3.13
2018-07-17T23:33:18.073Z,2.73
2018-07-17T23:35:51.523Z,2.90
2018-07-17T23:38:19.027Z,2.80
2018-07-17T23:40:46.462Z,2.80
2018-07-17T23:43:13.873Z,3.93
2018-07-17T23:45:41.423Z,3.90
2018-07-17T23:48:08.864Z,3.90
2018-07-17T23:50:36.346Z,3.10
2018-07-17T23:53:03.995Z,3.20
2018-07-17T23:55:31.586Z,2.80
2018-07-17T23:57:59.079Z,3.03
